JTE210 YMML-YSCB
Flight info
| Callsign | JTE210 |
|---|---|
| Flight time | 0h 50m |
| Altitude | 23000 |
| Route | DOSEL2/34 DOSEL Y59 ARRAN J42 CB |
| Aircraft | RJ1H/M-SDFGIRWY/LB1 |
Departure
| Time | 2026-05-04 09:01 |
|---|---|
| Airport | Melbourne Airport (YMML) |
Arrival
| Time | 2026-05-04 09:51 |
|---|---|
| Airport | Canberra Airport (YSCB) |
| Time | Latitude | Longitude | Altitude | Speed | Heading |
|---|---|---|---|---|---|
| 2026-05-04 07:46 | -37.67065 | 144.84674 | 390 ft | 0 kts | 171° |
| 2026-05-04 08:35 | -37.67050 | 144.84668 | 391 ft | 4 kts | 153° |
| 2026-05-04 08:37 | -37.66981 | 144.84661 | 392 ft | 0 kts | 217° |
| 2026-05-04 08:40 | -37.66988 | 144.84654 | 392 ft | 5 kts | 217° |
| 2026-05-04 08:41 | -37.67009 | 144.84598 | 390 ft | 8 kts | 259° |
| 2026-05-04 08:41 | -37.67016 | 144.84527 | 389 ft | 9 kts | 268° |
| 2026-05-04 08:41 | -37.67031 | 144.84454 | 381 ft | 9 kts | 234° |
| 2026-05-04 08:41 | -37.67052 | 144.84377 | 386 ft | 10 kts | 262° |
| 2026-05-04 08:42 | -37.67061 | 144.84290 | 385 ft | 10 kts | 262° |
| 2026-05-04 08:42 | -37.67072 | 144.84201 | 383 ft | 11 kts | 261° |
| 2026-05-04 08:42 | -37.67083 | 144.84108 | 382 ft | 11 kts | 262° |
| 2026-05-04 08:42 | -37.67131 | 144.84049 | 381 ft | 11 kts | 183° |
| 2026-05-04 08:43 | -37.67210 | 144.84062 | 378 ft | 12 kts | 172° |
| 2026-05-04 08:43 | -37.67295 | 144.84075 | 376 ft | 13 kts | 170° |
| 2026-05-04 08:43 | -37.67384 | 144.84094 | 374 ft | 13 kts | 171° |
| 2026-05-04 08:43 | -37.67478 | 144.84111 | 371 ft | 14 kts | 171° |
| 2026-05-04 08:44 | -37.67537 | 144.84122 | 369 ft | 4 kts | 171° |
| 2026-05-04 08:44 | -37.67553 | 144.84126 | 373 ft | 0 kts | 171° |
| 2026-05-04 08:46 | -37.67579 | 144.84131 | 370 ft | 6 kts | 171° |
| 2026-05-04 08:46 | -37.67600 | 144.84135 | 367 ft | 0 kts | 171° |
| 2026-05-04 08:46 | -37.67617 | 144.84138 | 367 ft | 8 kts | 172° |
| 2026-05-04 08:47 | -37.67671 | 144.84148 | 366 ft | 4 kts | 172° |
| 2026-05-04 08:47 | -37.67672 | 144.84148 | 365 ft | 0 kts | 171° |
| 2026-05-04 08:49 | -37.67673 | 144.84148 | 365 ft | 1 kts | 171° |
| 2026-05-04 08:50 | -37.67742 | 144.84161 | 363 ft | 0 kts | 171° |
| 2026-05-04 08:51 | -37.67743 | 144.84161 | 363 ft | 2 kts | 171° |
| 2026-05-04 08:51 | -37.67786 | 144.84170 | 366 ft | 9 kts | 171° |
| 2026-05-04 08:52 | -37.67810 | 144.84174 | 366 ft | 0 kts | 172° |
| 2026-05-04 08:54 | -37.67815 | 144.84175 | 361 ft | 2 kts | 172° |
| 2026-05-04 08:55 | -37.67848 | 144.84175 | 365 ft | 7 kts | 198° |
| 2026-05-04 08:55 | -37.67872 | 144.84124 | 362 ft | 3 kts | 261° |
| 2026-05-04 08:55 | -37.67872 | 144.84121 | 361 ft | 0 kts | 261° |
| 2026-05-04 09:01 | -37.60888 | 144.82533 | 3920 ft | 158 kts | 342° |
| 2026-05-04 09:01 | -37.59752 | 144.82270 | 4305 ft | 176 kts | 342° |
| 2026-05-04 09:01 | -37.58419 | 144.82427 | 4476 ft | 217 kts | 15° |
| 2026-05-04 09:01 | -37.57031 | 144.83244 | 5201 ft | 221 kts | 17° |
| 2026-05-04 09:02 | -37.55631 | 144.84094 | 6110 ft | 226 kts | 18° |
| 2026-05-04 09:02 | -37.54209 | 144.84986 | 6953 ft | 229 kts | 19° |
| 2026-05-04 09:02 | -37.52765 | 144.85892 | 7788 ft | 235 kts | 19° |
| 2026-05-04 09:02 | -37.51293 | 144.86815 | 8654 ft | 238 kts | 20° |
| 2026-05-04 09:03 | -37.49762 | 144.87603 | 9482 ft | 235 kts | 0° |
| 2026-05-04 09:03 | -37.48212 | 144.87309 | 10226 ft | 226 kts | 334° |
| 2026-05-04 09:03 | -37.46745 | 144.86624 | 10971 ft | 229 kts | 334° |
| 2026-05-04 09:03 | -37.45249 | 144.85901 | 11739 ft | 232 kts | 333° |
| 2026-05-04 09:04 | -37.43742 | 144.85136 | 12487 ft | 236 kts | 332° |
| 2026-05-04 09:04 | -37.42222 | 144.84338 | 13237 ft | 239 kts | 332° |
| 2026-05-04 09:04 | -37.40593 | 144.83815 | 13909 ft | 252 kts | 358° |
| 2026-05-04 09:04 | -37.38903 | 144.84568 | 14533 ft | 270 kts | 32° |
| 2026-05-04 09:05 | -37.37478 | 144.86154 | 15151 ft | 276 kts | 38° |
| 2026-05-04 09:05 | -37.36091 | 144.87838 | 15793 ft | 279 kts | 39° |
| 2026-05-04 09:05 | -37.34716 | 144.89581 | 16440 ft | 282 kts | 40° |
| 2026-05-04 09:05 | -37.33347 | 144.91367 | 17097 ft | 285 kts | 41° |
| 2026-05-04 09:06 | -37.31976 | 144.93178 | 17758 ft | 287 kts | 41° |
| 2026-05-04 09:07 | -37.23016 | 145.07039 | 21296 ft | 312 kts | 70° |
| 2026-05-04 09:08 | -37.22478 | 145.09685 | 21553 ft | 314 kts | 73° |
| 2026-05-04 09:08 | -37.21986 | 145.12354 | 21799 ft | 315 kts | 73° |
| 2026-05-04 09:08 | -37.21499 | 145.15033 | 22043 ft | 316 kts | 73° |
| 2026-05-04 09:08 | -37.21004 | 145.17685 | 22280 ft | 317 kts | 73° |
| 2026-05-04 09:09 | -37.20482 | 145.20370 | 22502 ft | 317 kts | 72° |
| 2026-05-04 09:09 | -37.19937 | 145.23046 | 22707 ft | 318 kts | 72° |
| 2026-05-04 09:09 | -37.19376 | 145.25731 | 22880 ft | 319 kts | 72° |
| 2026-05-04 09:09 | -37.18943 | 145.28456 | 22960 ft | 319 kts | 89° |
| 2026-05-04 09:10 | -37.19414 | 145.31166 | 23035 ft | 323 kts | 118° |
| 2026-05-04 09:10 | -37.20778 | 145.33396 | 23057 ft | 325 kts | 137° |
| 2026-05-04 09:10 | -37.22416 | 145.35366 | 23027 ft | 329 kts | 140° |
| 2026-05-04 09:10 | -37.24148 | 145.37342 | 23023 ft | 344 kts | 141° |
| 2026-05-04 09:11 | -37.25850 | 145.39528 | 23010 ft | 358 kts | 124° |
| 2026-05-04 09:11 | -37.26809 | 145.42436 | 23022 ft | 367 kts | 97° |
| 2026-05-04 09:11 | -37.26785 | 145.45591 | 23033 ft | 370 kts | 73° |
| 2026-05-04 09:11 | -37.25793 | 145.48542 | 23037 ft | 369 kts | 50° |
| 2026-05-04 09:12 | -37.24058 | 145.50907 | 23053 ft | 371 kts | 38° |
| 2026-05-04 09:12 | -37.22121 | 145.53117 | 23047 ft | 381 kts | 37° |
| 2026-05-04 09:14 | -37.07081 | 145.69080 | 23011 ft | 410 kts | 35° |
| 2026-05-04 09:14 | -37.04960 | 145.71498 | 23006 ft | 415 kts | 40° |
| 2026-05-04 09:14 | -37.03002 | 145.74176 | 22988 ft | 418 kts | 45° |
| 2026-05-04 09:14 | -37.01160 | 145.76999 | 22998 ft | 420 kts | 47° |
| 2026-05-04 09:15 | -36.99373 | 145.79888 | 22998 ft | 420 kts | 47° |
| 2026-05-04 09:15 | -36.97621 | 145.82792 | 22995 ft | 417 kts | 47° |
| 2026-05-04 09:15 | -36.95861 | 145.85673 | 22995 ft | 417 kts | 46° |
| 2026-05-04 09:15 | -36.94081 | 145.88533 | 22996 ft | 417 kts | 46° |
| 2026-05-04 09:17 | -36.79778 | 146.11270 | 23023 ft | 413 kts | 44° |
| 2026-05-04 09:18 | -36.77977 | 146.14075 | 23015 ft | 415 kts | 44° |
| 2026-05-04 09:18 | -36.76180 | 146.16896 | 23017 ft | 416 kts | 44° |
| 2026-05-04 09:18 | -36.74388 | 146.19731 | 23027 ft | 416 kts | 44° |
| 2026-05-04 09:18 | -36.72592 | 146.22560 | 23021 ft | 415 kts | 43° |
| 2026-05-04 09:19 | -36.70810 | 146.25327 | 23019 ft | 415 kts | 43° |
| 2026-05-04 09:19 | -36.69014 | 146.28149 | 23028 ft | 416 kts | 44° |
| 2026-05-04 09:19 | -36.67221 | 146.30979 | 23024 ft | 416 kts | 44° |
| 2026-05-04 09:19 | -36.65433 | 146.33803 | 23013 ft | 413 kts | 43° |
| 2026-05-04 09:20 | -36.63650 | 146.36595 | 22997 ft | 412 kts | 43° |
| 2026-05-04 09:20 | -36.61857 | 146.39388 | 23020 ft | 413 kts | 42° |
| 2026-05-04 09:20 | -36.60050 | 146.42176 | 23024 ft | 414 kts | 42° |
| 2026-05-04 09:20 | -36.58263 | 146.44976 | 23026 ft | 414 kts | 43° |
| 2026-05-04 09:21 | -36.56481 | 146.47785 | 23033 ft | 414 kts | 43° |
| 2026-05-04 09:21 | -36.54706 | 146.50538 | 23037 ft | 413 kts | 42° |
| 2026-05-04 09:21 | -36.52901 | 146.53329 | 23037 ft | 414 kts | 43° |
| 2026-05-04 09:21 | -36.51117 | 146.56137 | 23037 ft | 414 kts | 43° |
| 2026-05-04 09:22 | -36.49330 | 146.58939 | 23011 ft | 414 kts | 42° |
| 2026-05-04 09:22 | -36.47525 | 146.61735 | 23023 ft | 415 kts | 42° |
| 2026-05-04 09:22 | -36.45715 | 146.64534 | 23030 ft | 416 kts | 42° |
| 2026-05-04 09:22 | -36.43902 | 146.67338 | 23032 ft | 416 kts | 42° |
| 2026-05-04 09:23 | -36.42094 | 146.70134 | 23032 ft | 415 kts | 42° |
| 2026-05-04 09:23 | -36.40312 | 146.72892 | 23033 ft | 415 kts | 42° |
| 2026-05-04 09:23 | -36.38506 | 146.75687 | 23036 ft | 415 kts | 42° |
| 2026-05-04 09:23 | -36.36707 | 146.78480 | 23037 ft | 415 kts | 42° |
| 2026-05-04 09:25 | -36.24089 | 146.97983 | 23044 ft | 414 kts | 42° |
| 2026-05-04 09:25 | -36.22288 | 147.00771 | 23031 ft | 415 kts | 42° |
| 2026-05-04 09:26 | -36.20482 | 147.03563 | 23045 ft | 416 kts | 41° |
| 2026-05-04 09:26 | -36.18658 | 147.06341 | 23045 ft | 416 kts | 41° |
| 2026-05-04 09:26 | -36.16873 | 147.09163 | 23042 ft | 417 kts | 43° |
| 2026-05-04 09:26 | -36.15126 | 147.12039 | 23023 ft | 418 kts | 44° |
| 2026-05-04 09:27 | -36.13389 | 147.14912 | 23044 ft | 417 kts | 44° |
| 2026-05-04 09:27 | -36.11651 | 147.17785 | 23046 ft | 417 kts | 44° |
| 2026-05-04 09:27 | -36.09923 | 147.20664 | 23059 ft | 417 kts | 44° |
| 2026-05-04 09:27 | -36.08199 | 147.23544 | 23059 ft | 417 kts | 44° |
| 2026-05-04 09:28 | -36.06499 | 147.26393 | 23043 ft | 418 kts | 44° |
| 2026-05-04 09:28 | -36.04763 | 147.29283 | 23051 ft | 418 kts | 44° |
| 2026-05-04 09:28 | -36.03025 | 147.32169 | 23054 ft | 419 kts | 44° |
| 2026-05-04 09:28 | -36.01296 | 147.35069 | 23047 ft | 419 kts | 44° |
| 2026-05-04 09:29 | -35.99564 | 147.37954 | 23071 ft | 418 kts | 44° |
| 2026-05-04 09:29 | -35.97817 | 147.40817 | 23066 ft | 417 kts | 43° |
| 2026-05-04 09:29 | -35.96062 | 147.43659 | 23058 ft | 416 kts | 44° |
| 2026-05-04 09:29 | -35.94322 | 147.46529 | 23058 ft | 417 kts | 44° |
| 2026-05-04 09:30 | -35.92583 | 147.49392 | 23060 ft | 417 kts | 44° |
| 2026-05-04 09:30 | -35.90864 | 147.52218 | 23057 ft | 418 kts | 44° |
| 2026-05-04 09:30 | -35.89119 | 147.55071 | 23060 ft | 417 kts | 43° |
| 2026-05-04 09:30 | -35.87374 | 147.57928 | 23067 ft | 417 kts | 44° |
| 2026-05-04 09:31 | -35.85633 | 147.60784 | 23077 ft | 418 kts | 45° |
| 2026-05-04 09:31 | -35.84230 | 147.63986 | 23069 ft | 437 kts | 62° |
| 2026-05-04 09:31 | -35.83150 | 147.67468 | 23059 ft | 426 kts | 51° |
| 2026-05-04 09:31 | -35.81509 | 147.70417 | 23081 ft | 418 kts | 46° |
| 2026-05-04 09:32 | -35.80278 | 147.73748 | 23068 ft | 443 kts | 69° |
| 2026-05-04 09:32 | -35.79782 | 147.77537 | 23096 ft | 450 kts | 73° |
| 2026-05-04 09:34 | -35.77656 | 148.04511 | 23095 ft | 459 kts | 77° |
| 2026-05-04 09:34 | -35.77374 | 148.08421 | 23090 ft | 459 kts | 77° |
| 2026-05-04 09:34 | -35.77088 | 148.12342 | 23049 ft | 459 kts | 77° |
| 2026-05-04 09:34 | -35.76808 | 148.16255 | 22686 ft | 460 kts | 78° |
| 2026-05-04 09:35 | -35.76557 | 148.20144 | 22126 ft | 452 kts | 78° |
| 2026-05-04 09:35 | -35.76303 | 148.23927 | 21601 ft | 445 kts | 77° |
| 2026-05-04 09:35 | -35.76034 | 148.27710 | 21074 ft | 442 kts | 77° |
| 2026-05-04 09:35 | -35.75763 | 148.31462 | 20566 ft | 439 kts | 77° |
| 2026-05-04 09:37 | -35.73944 | 148.56427 | 17062 ft | 391 kts | 77° |
| 2026-05-04 09:37 | -35.73516 | 148.59699 | 16567 ft | 385 kts | 70° |
| 2026-05-04 09:38 | -35.72840 | 148.62816 | 16085 ft | 379 kts | 65° |
| 2026-05-04 09:38 | -35.72012 | 148.65876 | 15587 ft | 374 kts | 63° |
| 2026-05-04 09:38 | -35.71130 | 148.68873 | 15099 ft | 371 kts | 62° |
| 2026-05-04 09:38 | -35.70232 | 148.71842 | 14621 ft | 369 kts | 62° |
| 2026-05-04 09:39 | -35.69323 | 148.74782 | 14159 ft | 367 kts | 62° |
| 2026-05-04 09:39 | -35.68414 | 148.77704 | 13664 ft | 365 kts | 62° |
| 2026-05-04 09:39 | -35.67523 | 148.80623 | 13161 ft | 361 kts | 62° |
| 2026-05-04 09:39 | -35.66705 | 148.83408 | 12613 ft | 333 kts | 62° |
| 2026-05-04 09:40 | -35.65951 | 148.85997 | 12060 ft | 312 kts | 61° |
| 2026-05-04 09:40 | -35.65231 | 148.88441 | 11528 ft | 296 kts | 61° |
| 2026-05-04 09:40 | -35.64548 | 148.90740 | 11012 ft | 285 kts | 60° |
| 2026-05-04 09:40 | -35.63866 | 148.93006 | 10546 ft | 280 kts | 60° |
| 2026-05-04 09:41 | -35.63197 | 148.95238 | 10069 ft | 277 kts | 59° |
| 2026-05-04 09:42 | -35.58717 | 149.09890 | 6601 ft | 253 kts | 61° |
| 2026-05-04 09:43 | -35.58065 | 149.11872 | 6209 ft | 254 kts | 61° |
| 2026-05-04 09:43 | -35.57403 | 149.13885 | 5958 ft | 254 kts | 62° |
| 2026-05-04 09:43 | -35.56741 | 149.15899 | 5713 ft | 253 kts | 60° |
| 2026-05-04 09:43 | -35.55748 | 149.17532 | 5625 ft | 227 kts | 31° |
| 2026-05-04 09:44 | -35.54519 | 149.18543 | 5602 ft | 198 kts | 19° |
| 2026-05-04 09:44 | -35.53311 | 149.19170 | 5537 ft | 184 kts | 6° |
| 2026-05-04 09:44 | -35.52097 | 149.19711 | 5494 ft | 187 kts | 11° |
| 2026-05-04 09:46 | -35.43432 | 149.19457 | 4289 ft | 153 kts | 354° |
| 2026-05-04 09:46 | -35.42420 | 149.19449 | 4070 ft | 139 kts | 354° |
| 2026-05-04 09:46 | -35.41484 | 149.19448 | 3884 ft | 131 kts | 355° |
| 2026-05-04 09:47 | -35.40596 | 149.19447 | 3692 ft | 124 kts | 355° |
| 2026-05-04 09:47 | -35.39756 | 149.19441 | 3531 ft | 120 kts | 358° |
| 2026-05-04 09:49 | -35.33893 | 149.19460 | 2406 ft | 122 kts | 357° |
| 2026-05-04 09:49 | -35.33049 | 149.19455 | 2262 ft | 121 kts | 355° |
| 2026-05-04 09:49 | -35.32234 | 149.19453 | 2084 ft | 115 kts | 356° |
| 2026-05-04 09:51 | -35.30177 | 149.19381 | 1879 ft | 10 kts | 290° |
| 2026-05-04 09:51 | -35.30153 | 149.19299 | 1879 ft | 10 kts | 286° |
| 2026-05-04 09:51 | -35.30171 | 149.19241 | 1879 ft | 9 kts | 191° |
| 2026-05-04 09:51 | -35.30232 | 149.19240 | 1879 ft | 8 kts | 180° |
| 2026-05-04 09:52 | -35.30294 | 149.19240 | 1879 ft | 9 kts | 180° |
| 2026-05-04 09:52 | -35.30367 | 149.19240 | 1877 ft | 10 kts | 180° |
| 2026-05-04 09:52 | -35.30430 | 149.19239 | 1879 ft | 5 kts | 180° |
| 2026-05-04 09:52 | -35.30444 | 149.19239 | 1879 ft | 0 kts | 180° |
| 2026-05-04 09:54 | -35.30445 | 149.19239 | 1879 ft | 2 kts | 180° |
| 2026-05-04 09:54 | -35.30502 | 149.19239 | 1879 ft | 11 kts | 180° |
| 2026-05-04 09:54 | -35.30606 | 149.19239 | 1879 ft | 14 kts | 184° |
| 2026-05-04 09:54 | -35.30646 | 149.19192 | 1879 ft | 7 kts | 272° |
| 2026-05-04 09:55 | -35.30647 | 149.19150 | 1879 ft | 5 kts | 245° |
| 2026-05-04 09:55 | -35.30666 | 149.19116 | 1877 ft | 4 kts | 232° |
| 2026-05-04 09:55 | -35.30676 | 149.19101 | 1876 ft | 0 kts | 230° |